Nearby METAR Reports

 

KRSP - Nsf Thurmont, Maryland, USA
Distance from station: SE 8mi, 13km
Updated: Sat, 25-Jun-2022 9:54am EDT
Clear
Clear
 Wind from varies
Wind: varies 3 mph , 6 km/h
Temperature: 75°F , 24°C
Barometer: 30.20 inHg , 1022.7 hPa
Clouds: Clear
2022/06/25 13:54 KRSP 251354Z AUTO VRB03KT CLR 24/ A3020 RMK AO2 SLP219 T0244 $
KHGR - Hagerstown, Maryland, USA
Distance from station: WSW 10mi, 16km
Updated: Sat, 25-Jun-2022 9:53am EDT
Clear
Clear
 Wind from SSE
Wind: SSE 5 mph , 7 km/h
Temperature: 79°F , 26°C
Dew Point: 66°F , 19°C
Humidity: 65%
Barometer: 30.15 inHg , 1021 hPa
Clouds: Clear
Visibility: 10 miles , 16 km
2022/06/25 13:53 KHGR 251353Z 15004KT 10SM CLR 26/19 A3015 RMK AO2 SLP215 T02560194 $
KFDK - Frederick, Maryland, USA
Distance from station: SSE 25mi, 40km
Updated: Sat, 25-Jun-2022 9:47am EDT
Clear
Clear
 Wind from SSW
Wind: SSW 6 mph , 9 km/h
Temperature: 79°F , 26°C
Dew Point: 61°F , 16°C
Humidity: 54%
Barometer: 30.15 inHg , 1021 hPa
Clouds: Clear
Visibility: 10 miles , 16 km
2022/06/25 13:47 KFDK 251347Z 20005KT 10SM CLR 26/16 A3015
 
KDMW - Carroll Cnty, Maryland, USA
Distance from station: ESE 31mi, 50km
Updated: Sat, 25-Jun-2022 9:35am EDT
Clear
Clear
 Wind from SW
Wind: SW 3 mph , 6 km/h
Temperature: 79°F , 26°C
Dew Point: 68°F , 20°C
Humidity: 70%
Barometer: 30.16 inHg , 1021.3 hPa
Clouds: Clear
Visibility: 10 miles , 16 km
2022/06/25 13:35 KDMW 251335Z AUTO 22003KT 10SM CLR 26/20 A3016 RMK AO2
KMRB - Martinsburg, West Virginia, USA
Distance from station: SW 33mi, 53km
Updated: Sat, 25-Jun-2022 9:53am EDT
Clear
Clear
 Wind from S
Wind: S 5 mph , 7 km/h
Temperature: 79°F , 26°C
Dew Point: 66°F , 19°C
Humidity: 65%
Barometer: 30.14 inHg , 1020.7 hPa
Clouds: Clear
Visibility: 10 miles , 16 km
2022/06/25 13:53 KMRB 251353Z 19004KT 10SM CLR 26/19 A3014 RMK AO2 SLP202 T02560194 $
KTHV - York, Pennsylvania, USA
Distance from station: ENE 37mi, 60km
Updated: Sat, 25-Jun-2022 9:53am EDT
Clear
Clear
 Wind from ESE
Wind: ESE 3 mph , 6 km/h
Temperature: 79°F , 26°C
Dew Point: 66°F , 19°C
Humidity: 65%
Barometer: 30.15 inHg , 1021 hPa
Clouds: Clear
Visibility: 10 miles , 16 km
2022/06/25 13:53 KTHV 251353Z AUTO 11003KT 10SM CLR 26/19 A3015 RMK AO2 SLP208 T02560189
 
KGAI - Gaithersburg, Maryland, USA
Distance from station: SSE 45mi, 72km
Updated: Sat, 25-Jun-2022 9:56am EDT
Clear
Clear
 Wind from S
Wind: S 5 mph , 7 km/h
Temperature: 81°F , 27°C
Heat Index: 84°F , 29°C
Dew Point: 68°F , 20°C
Humidity: 66%
Barometer: 30.18 inHg , 1022 hPa
Clouds: Clear
Visibility: 10 miles , 16 km
2022/06/25 13:56 KGAI 251356Z AUTO 18004KT 10SM CLR 27/20 A3018 RMK AO2 SLP228 T02720200
KJYO - Leesburg/Godfrey, Virginia, USA
Distance from station: S 47mi, 75km
Updated: Sat, 25-Jun-2022 9:55am EDT
Clear
Clear
 Wind from calm
Wind: Calm
Temperature: 79°F , 26°C
Dew Point: 70°F , 21°C
Humidity: 74%
Barometer: 30.17 inHg , 1021.7 hPa
Clouds: Clear
Visibility: 10 miles , 16 km
2022/06/25 13:55 KJYO 251355Z AUTO 00000KT 10SM CLR 26/21 A3017 RMK AO2 PWINO
KCXY - Harrisburg, Pennsylvania, USA
Distance from station: NE 50mi, 80km
Updated: Sat, 25-Jun-2022 9:56am EDT
Clear
Clear
 Wind from calm
Wind: Calm
Temperature: 82°F , 28°C
Heat Index: 84°F , 29°C
Dew Point: 66°F , 19°C
Humidity: 58%
Barometer: 30.14 inHg , 1020.7 hPa
Clouds: Clear
Visibility: 10 miles , 16 km
2022/06/25 13:56 KCXY 251356Z 00000KT 10SM CLR 28/19 A3014 RMK AO2 SLP206 T02780194
 
KMDT - Middletown, Pennsylvania, USA
Distance from station: NE 52mi, 84km
Updated: Sat, 25-Jun-2022 9:56am EDT
Partly cloudy
Partly cloudy
 Wind from SSE
Wind: SSE 3 mph , 6 km/h
Temperature: 79°F , 26°C
Dew Point: 66°F , 19°C
Humidity: 65%
Barometer: 30.14 inHg , 1020.7 hPa
Clouds: Partly cloudy
Visibility: 10 miles , 16 km
Cloud details: Partly cloudy 3000 ft
2022/06/25 13:56 KMDT 251356Z 16003KT 10SM SCT030 26/19 A3014 RMK AO2 SLP204 T02610189
KOKV - Winchester Rgnl, Virginia, USA
Distance from station: SW 53mi, 85km
Updated: Sat, 25-Jun-2022 9:55am EDT
Clear
Clear
 Wind from WSW
Wind: WSW 6 mph , 9 km/h
Temperature: 77°F , 25°C
Dew Point: 66°F , 19°C
Humidity: 69%
Barometer: 30.15 inHg , 1021 hPa
Clouds: Clear
Visibility: 10 miles , 16 km
2022/06/25 13:55 KOKV 251355Z AUTO 24005KT 10SM CLR 25/19 A3015 RMK AO2
KAOO - Altoona, Pennsylvania, USA
Distance from station: NW 56mi, 90km
Updated: Sat, 25-Jun-2022 9:53am EDT
Clear
Clear
 Wind from calm
Wind: Calm
Temperature: 75°F , 24°C
Dew Point: 64°F , 18°C
Humidity: 69%
Barometer: 30.18 inHg , 1022 hPa
Clouds: Clear
Visibility: 10 miles , 16 km
2022/06/25 13:53 KAOO 251353Z AUTO 00000KT 10SM CLR 24/18 A3018 RMK AO2 SLP208 T02440183
 
KIAD - Wash Dc/Dulles, Virginia, USA
Distance from station: S 56mi, 90km
Updated: Sat, 25-Jun-2022 9:52am EDT
Few Clouds
Few Clouds
 Wind from SSW
Wind: SSW 6 mph , 9 km/h
Temperature: 79°F , 26°C
Dew Point: 66°F , 19°C
Humidity: 65%
Barometer: 30.16 inHg , 1021.3 hPa
Clouds: Few Clouds
Visibility: 10 miles , 16 km
Cloud details: Few Clouds 25000 ft
2022/06/25 13:52 KIAD 251352Z 21005KT 10SM FEW250 26/19 A3016 RMK AO2 SLP209 T02560194
KHMZ - Bedford, Pennsylvania, USA
Distance from station: WNW 56mi, 91km
Updated: Fri, 24-Jun-2022 9:50am EDT
NOT Current
Overcast
Overcast
 Wind from SSW
Wind: SSW 3 mph , 6 km/h
Temperature: 68°F , 20°C
Dew Point: 64°F , 18°C
Humidity: 88%
Barometer: 30.08 inHg , 1018.6 hPa
Clouds: Overcast
Visibility: 10 miles , 16 km
Cloud details: Overcast 1100 ft
2022/06/24 13:50 KHMZ 241350Z AUTO 21003KT 10SM OVC011 20/18 A3008 RMK AO2 T02030176
KBWI - Balto/Wash Intl, Maryland, USA
Distance from station: SE 61mi, 98km
Updated: Sat, 25-Jun-2022 9:54am EDT
Few Clouds
Few Clouds
 Wind from varies
Wind: varies 6 mph , 9 km/h
Temperature: 81°F , 27°C
Heat Index: 83°F , 28°C
Dew Point: 66°F , 19°C
Humidity: 62%
Barometer: 30.14 inHg , 1020.7 hPa
Clouds: Few Clouds
Visibility: 10 miles , 16 km
Cloud details: Few Clouds 25000 ft
2022/06/25 13:54 KBWI 251354Z VRB05KT 10SM FEW250 27/19 A3014 RMK AO2 SLP206 T02720194
 
KFME - Fort Meade, Maryland, USA
Distance from station: SE 62mi, 100km
Updated: Sat, 25-Jun-2022 9:39am EDT
Clear
Clear
 Wind from WSW
Wind: WSW 3 mph , 6 km/h
Temperature: 75°F , 24°C
Dew Point: 70°F , 21°C
Humidity: 83%
Barometer: 30.18 inHg , 1022 hPa
Clouds: Clear
Visibility: 10 miles , 16 km
2022/06/25 13:39 KFME 251339Z AUTO 24003KT 10SM CLR 24/21 A3018 RMK AO1
KCGS - College Park, Maryland, USA
Distance from station: SE 62mi, 101km
Updated: Sat, 25-Jun-2022 9:39am EDT
Clear
Clear
 Wind from calm
Wind: Calm
Temperature: 75°F , 24°C
Dew Point: 72°F , 22°C
Humidity: 89%
Barometer: 30.15 inHg , 1021 hPa
Clouds: Clear
Visibility: 10 miles , 16 km
2022/06/25 13:39 KCGS 251339Z AUTO 00000KT 10SM CLR 24/22 A3015 RMK AO1 T02350219
KCBE - Cumberland Reg, Maryland, USA
Distance from station: W 65mi, 105km
Updated: Sat, 25-Jun-2022 9:30am EDT
Clear
Clear
 Wind from ESE
Wind: ESE 3 mph , 6 km/h
Temperature: 73°F , 23°C
Dew Point: 63°F , 17°C
Humidity: 69%
Barometer: 30.21 inHg , 1023 hPa
Clouds: Clear
Visibility: 10 miles , 16 km
2022/06/25 13:30 KCBE 251330Z AUTO 12003KT 10SM CLR 23/17 A3021 RMK AO2 T02310170
 
KRVL - Reedsville, Pennsylvania, USA
Distance from station: N 65mi, 105km
Updated: Sat, 25-Jun-2022 9:55am EDT
Clear
Clear
 Wind from calm
Wind: Calm
Temperature: 73°F , 23°C
Dew Point: 73°F , 23°C
Humidity: 100%
Barometer: 30.15 inHg , 1021 hPa
Clouds: Clear
Visibility: 10 miles , 16 km
2022/06/25 13:55 KRVL 251355Z AUTO 00000KT 10SM CLR 23/23 A3015 RMK AO2
KMTN - Baltimore/Martin, Maryland, USA
Distance from station: ESE 67mi, 108km
Updated: Sat, 25-Jun-2022 9:54am EDT
Clear
Clear
 Wind from SE
Wind: SE 5 mph , 7 km/h
Temperature: 79°F , 26°C
Dew Point: 70°F , 21°C
Humidity: 74%
Barometer: 30.16 inHg , 1021.3 hPa
Clouds: Clear
Visibility: 10 miles , 16 km
2022/06/25 13:54 KMTN 251354Z 14004KT 10SM CLR 26/21 A3016